createdAt,value
2019-06-10T00:00:21.874Z,95126.14
2019-06-10T00:02:52.337Z,95117.59
2019-06-10T00:05:22.940Z,95117.78
2019-06-10T00:07:53.466Z,95114.32
2019-06-10T00:10:23.996Z,95112.14
2019-06-10T00:12:55.342Z,95114.66
2019-06-10T00:15:27.281Z,95115.84
2019-06-10T00:18:18.765Z,95106.66
2019-06-10T00:20:30.558Z,95110.48
2019-06-10T00:23:02.551Z,95107.84
2019-06-10T00:25:32.969Z,95102.62
2019-06-10T00:28:05.649Z,95112.13
2019-06-10T00:30:35.799Z,95104.94
2019-06-10T00:33:08.031Z,95113.80
2019-06-10T00:35:41.185Z,95114.87
2019-06-10T00:38:14.393Z,95108.34
2019-06-10T00:40:43.401Z,95106.95
2019-06-10T00:43:14.235Z,95109.76
2019-06-10T00:45:44.873Z,95116.73
2019-06-10T00:48:25.009Z,95127.39
2019-06-10T00:50:48.432Z,95116.37
2019-06-10T00:53:21.174Z,95118.14
2019-06-10T00:55:51.781Z,95112.87
2019-06-10T00:58:22.517Z,95103.58
2019-06-10T01:00:52.992Z,95105.34
2019-06-10T01:03:24.363Z,95103.88
2019-06-10T01:05:55.159Z,95095.27
2019-06-10T01:08:25.650Z,95092.00
2019-06-10T01:10:56.099Z,95097.58
2019-06-10T01:13:26.541Z,95101.91
2019-06-10T01:15:57.328Z,95106.36
2019-06-10T01:18:37.565Z,95100.67
2019-06-10T01:21:01.799Z,95106.22
2019-06-10T01:23:32.801Z,95098.22
2019-06-10T01:26:03.654Z,95085.91
2019-06-10T01:28:34.237Z,95079.08
2019-06-10T01:31:07.852Z,95086.30
2019-06-10T01:33:36.634Z,95080.95
2019-06-10T01:36:07.680Z,95078.30
2019-06-10T01:38:38.099Z,95076.11
2019-06-10T01:41:10.680Z,95073.77
2019-06-10T01:43:40.879Z,95073.57
2019-06-10T01:46:12.916Z,95067.06
2019-06-10T01:48:47.837Z,95070.47
2019-06-10T01:51:21.077Z,95071.75
2019-06-10T01:53:51.470Z,95070.96
2019-06-10T01:56:23.382Z,95070.08
2019-06-10T01:58:53.696Z,95079.34
2019-06-10T02:01:42.485Z,95071.86
2019-06-10T02:04:16.085Z,95074.66
2019-06-10T02:06:45.295Z,95086.91
2019-06-10T02:09:17.197Z,95081.44
2019-06-10T02:11:48.042Z,95073.62
2019-06-10T02:14:20.381Z,95078.98
2019-06-10T02:16:50.772Z,95075.39
2019-06-10T02:19:22.981Z,95060.44
2019-06-10T02:21:53.492Z,95066.30
2019-06-10T02:24:23.807Z,95068.66
2019-06-10T02:26:54.481Z,95074.20
2019-06-10T02:29:24.780Z,95064.27
2019-06-10T02:31:55.604Z,95067.98
2019-06-10T02:34:27.571Z,95078.56
2019-06-10T02:36:59.138Z,95081.92
2019-06-10T02:39:35.016Z,95081.92
2019-06-10T02:42:08.351Z,95085.04
2019-06-10T02:44:38.822Z,95083.98
2019-06-10T02:47:09.391Z,95074.45
2019-06-10T02:49:56.440Z,95077.90
2019-06-10T02:52:20.043Z,95068.33
2019-06-10T02:54:53.205Z,95067.53
2019-06-10T02:57:29.687Z,95067.53
2019-06-10T02:59:54.724Z,95069.37
2019-06-10T03:02:31.306Z,95065.50
2019-06-10T03:04:57.582Z,95073.17
2019-06-10T03:07:30.966Z,95071.33
2019-06-10T03:10:04.404Z,95066.14
2019-06-10T03:12:33.143Z,95066.14
2019-06-10T03:15:03.531Z,95075.59
2019-06-10T03:17:34.870Z,95075.09
2019-06-10T03:20:05.768Z,95074.16
2019-06-10T03:22:36.195Z,95074.16
2019-06-10T03:25:06.758Z,95072.10
2019-06-10T03:27:37.070Z,95066.30
2019-06-10T03:30:15.289Z,95069.64
2019-06-10T03:32:42.715Z,95076.64
2019-06-10T03:35:13.190Z,95076.64
2019-06-10T03:37:44.117Z,95076.70
2019-06-10T03:40:14.725Z,95082.71
2019-06-10T03:42:45.126Z,95084.95
2019-06-10T03:45:17.447Z,95085.52
2019-06-10T03:47:47.862Z,95084.91
2019-06-10T03:50:19.263Z,95084.56
2019-06-10T03:52:52.322Z,95080.82
2019-06-10T03:55:24.895Z,95077.70
2019-06-10T03:57:54.110Z,95078.00
2019-06-10T04:00:27.178Z,95084.83
2019-06-10T04:02:57.556Z,95080.30
2019-06-10T04:05:28.849Z,95073.92
2019-06-10T04:08:02.164Z,95071.50
2019-06-10T04:10:32.677Z,95071.59
2019-06-10T04:13:03.339Z,95071.18
2019-06-10T04:15:33.830Z,95075.83
2019-06-10T04:18:04.216Z,95072.20
2019-06-10T04:20:34.882Z,95075.94
2019-06-10T04:23:05.605Z,95076.98
2019-06-10T04:25:39.369Z,95083.61
2019-06-10T04:28:12.377Z,95087.66
2019-06-10T04:30:43.179Z,95083.11
2019-06-10T04:33:13.670Z,95081.48
2019-06-10T04:35:44.189Z,95080.67
2019-06-10T04:38:14.481Z,95079.30
2019-06-10T04:40:45.302Z,95073.95
2019-06-10T04:43:15.656Z,95070.19
2019-06-10T04:45:45.996Z,95073.06
2019-06-10T04:48:16.365Z,95069.66
2019-06-10T04:50:46.990Z,95074.23
2019-06-10T04:53:18.614Z,95072.87
2019-06-10T04:55:52.287Z,95068.91
2019-06-10T04:58:24.412Z,95071.56
2019-06-10T05:00:54.822Z,95078.00
2019-06-10T05:03:26.816Z,95070.89
2019-06-10T05:05:57.460Z,95053.94
2019-06-10T05:08:28.500Z,95057.77
2019-06-10T05:10:59.887Z,95056.02
2019-06-10T05:13:30.437Z,95058.69
2019-06-10T05:16:03.500Z,95062.13
2019-06-10T05:18:33.470Z,95059.09
2019-06-10T05:21:04.395Z,95053.25
2019-06-10T05:23:34.896Z,95057.53
2019-06-10T05:26:05.333Z,95061.70
2019-06-10T05:28:35.929Z,95064.61
2019-06-10T05:31:06.546Z,95059.72
2019-06-10T05:33:36.827Z,95064.20
2019-06-10T05:36:07.299Z,95063.66
2019-06-10T05:38:37.937Z,95069.06
2019-06-10T05:41:08.227Z,95063.71
2019-06-10T05:43:38.961Z,95058.31
2019-06-10T05:46:09.255Z,95060.36
2019-06-10T05:48:39.678Z,95053.39
2019-06-10T05:51:12.233Z,95051.56
2019-06-10T05:53:45.722Z,95051.77
2019-06-10T05:56:15.500Z,95051.22
2019-06-10T05:58:46.305Z,95051.31
2019-06-10T06:01:16.617Z,95048.80
2019-06-10T06:03:46.996Z,95057.34
2019-06-10T06:06:17.712Z,95044.80
2019-06-10T06:08:47.996Z,95052.28
2019-06-10T06:11:18.303Z,95049.08
2019-06-10T06:13:48.945Z,95048.51
2019-06-10T06:16:19.329Z,95040.72
2019-06-10T06:18:52.481Z,95045.04
2019-06-10T06:21:30.048Z,95044.80
2019-06-10T06:23:54.354Z,95039.84
2019-06-10T06:26:26.385Z,95040.35
2019-06-10T06:28:57.276Z,95038.48
2019-06-10T06:31:28.144Z,95042.24
2019-06-10T06:33:58.849Z,95040.67
2019-06-10T06:36:30.610Z,95041.97
2019-06-10T06:39:02.318Z,95036.87
2019-06-10T06:41:35.467Z,95032.30
2019-06-10T06:44:06.261Z,95031.94
2019-06-10T06:46:39.227Z,95039.71
2019-06-10T06:49:08.639Z,95030.67
2019-06-10T06:51:51.835Z,95033.17
2019-06-10T06:54:12.529Z,95031.15
2019-06-10T06:56:43.842Z,95033.27
2019-06-10T06:59:14.371Z,95023.20
2019-06-10T07:01:45.128Z,95014.91
2019-06-10T07:04:15.898Z,95016.18
2019-06-10T07:06:46.234Z,95012.26
2019-06-10T07:09:17.996Z,95009.38
2019-06-10T07:11:49.089Z,95012.91
2019-06-10T07:14:23.159Z,95011.96
2019-06-10T07:16:53.020Z,95012.34
2019-06-10T07:19:23.429Z,95011.38
2019-06-10T07:22:08.286Z,95011.02
2019-06-10T07:24:28.164Z,95004.78
2019-06-10T07:26:58.453Z,94998.84
2019-06-10T07:29:29.094Z,95011.89
2019-06-10T07:31:59.823Z,95009.06
2019-06-10T07:34:32.558Z,95008.80
2019-06-10T07:37:02.639Z,95009.97
2019-06-10T07:39:36.428Z,95000.89
2019-06-10T07:42:06.260Z,94997.11
2019-06-10T07:44:37.559Z,95001.46
2019-06-10T07:47:08.285Z,94998.38
2019-06-10T07:49:39.290Z,95000.92
2019-06-10T07:52:16.543Z,94994.29
2019-06-10T07:54:44.022Z,95002.84
2019-06-10T07:57:14.389Z,95001.16
2019-06-10T07:59:45.999Z,94995.12
2019-06-10T08:02:16.457Z,94990.12
2019-06-10T08:04:46.877Z,94995.55
2019-06-10T08:07:17.568Z,94994.59
2019-06-10T08:09:47.970Z,94998.14
2019-06-10T08:12:18.274Z,94988.93
2019-06-10T08:14:49.009Z,94988.81
2019-06-10T08:17:19.580Z,94993.00
2019-06-10T08:19:53.844Z,94980.70
2019-06-10T08:22:34.209Z,94983.70
2019-06-10T08:24:56.107Z,94988.40
2019-06-10T08:27:26.819Z,94986.15
2019-06-10T08:30:14.105Z,94990.08
2019-06-10T08:32:29.997Z,94980.23
2019-06-10T08:35:02.805Z,94980.70
2019-06-10T08:37:33.262Z,94979.10
2019-06-10T08:40:03.914Z,94980.58
2019-06-10T08:42:34.283Z,94981.91
2019-06-10T08:45:05.263Z,94975.14
2019-06-10T08:47:36.842Z,94966.17
2019-06-10T08:50:07.873Z,94962.28
2019-06-10T08:52:56.899Z,94961.72
2019-06-10T08:55:12.580Z,94952.58
2019-06-10T08:57:46.982Z,94955.70
2019-06-10T09:00:18.593Z,94950.09
2019-06-10T09:02:53.672Z,94952.00
2019-06-10T09:05:23.975Z,94943.84
2019-06-10T09:07:54.657Z,94947.31
2019-06-10T09:10:26.173Z,94942.88
2019-06-10T09:12:56.668Z,94935.17
2019-06-10T09:15:26.961Z,94937.29
2019-06-10T09:17:57.554Z,94934.25
2019-06-10T09:20:28.566Z,94932.59
2019-06-10T09:23:14.997Z,94932.91
2019-06-10T09:25:33.319Z,94926.45
2019-06-10T09:28:03.500Z,94931.84
2019-06-10T09:30:33.839Z,94928.70
2019-06-10T09:33:04.925Z,94926.12
2019-06-10T09:35:35.645Z,94927.13
2019-06-10T09:38:06.163Z,94920.53
2019-06-10T09:40:59.199Z,94910.84
2019-06-10T09:43:24.421Z,94914.86
2019-06-10T09:45:56.463Z,94916.28
2019-06-10T09:48:27.794Z,94912.72
2019-06-10T09:50:59.302Z,94913.60
2019-06-10T09:53:38.850Z,94905.52
2019-06-10T09:56:04.126Z,94904.91
2019-06-10T09:58:34.479Z,94906.89
2019-06-10T10:01:06.364Z,94908.16
2019-06-10T10:03:37.188Z,94905.89
2019-06-10T10:06:14.489Z,94902.83
2019-06-10T10:08:41.348Z,94900.24
2019-06-10T10:11:12.865Z,94898.86
2019-06-10T10:13:46.518Z,94887.44
2019-06-10T10:16:16.481Z,94897.70
2019-06-10T10:18:49.426Z,94888.69
2019-06-10T10:21:19.424Z,94889.19
2019-06-10T10:23:54.223Z,94902.20
2019-06-10T10:26:21.863Z,94907.26
2019-06-10T10:28:56.912Z,94907.59
2019-06-10T10:31:24.574Z,94914.20
2019-06-10T10:33:55.382Z,94909.87
2019-06-10T10:36:25.680Z,94917.37
2019-06-10T10:38:56.366Z,94905.86
2019-06-10T10:41:27.060Z,94899.77
2019-06-10T10:43:58.486Z,94883.23
2019-06-10T10:46:29.016Z,94881.48
2019-06-10T10:49:02.519Z,94871.36
2019-06-10T10:51:32.668Z,94866.18
2019-06-10T10:54:21.211Z,94869.06
2019-06-10T10:56:35.350Z,94868.12
2019-06-10T10:59:06.146Z,94871.08
2019-06-10T11:01:36.487Z,94859.97
2019-06-10T11:04:07.509Z,94859.81
2019-06-10T11:06:37.937Z,94855.22
2019-06-10T11:09:12.754Z,94861.88
2019-06-10T11:11:44.072Z,94862.31
2019-06-10T11:14:15.424Z,94857.28
2019-06-10T11:16:47.176Z,94849.59
2019-06-10T11:19:17.729Z,94838.80
2019-06-10T11:21:48.017Z,94831.11
2019-06-10T11:24:33.604Z,94828.64
2019-06-10T11:26:55.146Z,94819.52
2019-06-10T11:29:24.400Z,94825.50
2019-06-10T11:31:57.369Z,94821.44
2019-06-10T11:34:27.561Z,94816.58
2019-06-10T11:36:58.319Z,94814.59
2019-06-10T11:39:28.779Z,94814.49
2019-06-10T11:41:59.099Z,94802.98
2019-06-10T11:44:29.775Z,94802.02
2019-06-10T11:47:03.060Z,94806.64
2019-06-10T11:49:32.636Z,94794.00
2019-06-10T11:52:03.381Z,94801.30
2019-06-10T11:54:50.597Z,94801.58
2019-06-10T11:57:07.304Z,94804.45
2019-06-10T11:59:37.960Z,94803.03
2019-06-10T12:02:08.737Z,94793.16
2019-06-10T12:04:39.092Z,94779.20
2019-06-10T12:07:09.363Z,94777.48
2019-06-10T12:09:39.756Z,94779.30
2019-06-10T12:12:12.681Z,94773.15
2019-06-10T12:14:43.213Z,94782.38
2019-06-10T12:17:29.723Z,94782.25
2019-06-10T12:19:45.866Z,94788.25
2019-06-10T12:22:16.577Z,94787.70
2019-06-10T12:24:46.899Z,94787.13
2019-06-10T12:27:17.195Z,94788.55
2019-06-10T12:29:48.020Z,94784.39
2019-06-10T12:32:18.283Z,94785.72
2019-06-10T12:34:48.614Z,94783.06
2019-06-10T12:37:19.316Z,94790.11
2019-06-10T12:39:49.714Z,94773.31
2019-06-10T12:42:22.289Z,94778.39
2019-06-10T12:44:54.457Z,94777.59
2019-06-10T12:47:24.258Z,94776.64
2019-06-10T12:49:56.160Z,94769.13
2019-06-10T12:52:27.014Z,94765.07
2019-06-10T12:54:57.601Z,94766.30
2019-06-10T12:57:28.186Z,94759.64
2019-06-10T12:59:58.668Z,94758.64
2019-06-10T13:02:33.921Z,94763.33
2019-06-10T13:05:05.660Z,94770.91
2019-06-10T13:07:36.046Z,94751.72
2019-06-10T13:10:07.885Z,94756.00
2019-06-10T13:12:38.689Z,94746.00
2019-06-10T13:15:10.039Z,94747.18
2019-06-10T13:17:43.790Z,94746.38
2019-06-10T13:20:13.703Z,94743.19
2019-06-10T13:22:44.073Z,94740.73
2019-06-10T13:25:14.772Z,94749.10
2019-06-10T13:27:45.697Z,94746.77
2019-06-10T13:30:17.781Z,94734.44
2019-06-10T13:32:48.446Z,94725.84
2019-06-10T13:35:19.405Z,94738.48
2019-06-10T13:37:52.182Z,94727.48
2019-06-10T13:40:22.674Z,94721.34
2019-06-10T13:42:53.446Z,94721.02
2019-06-10T13:45:25.635Z,94722.19
2019-06-10T13:47:56.189Z,94714.47
2019-06-10T13:50:28.130Z,94709.97
2019-06-10T13:52:58.738Z,94701.38
2019-06-10T13:55:29.042Z,94691.67
2019-06-10T13:57:59.717Z,94703.48
2019-06-10T14:00:40.822Z,94706.31
2019-06-10T14:03:05.107Z,94717.13
2019-06-10T14:05:34.706Z,94732.77
2019-06-10T14:08:08.659Z,94740.30
2019-06-10T14:10:37.135Z,94748.39
2019-06-10T14:13:09.561Z,94749.14
2019-06-10T14:15:42.368Z,94743.24
2019-06-10T14:18:14.989Z,94740.58
2019-06-10T14:20:44.626Z,94735.55
2019-06-10T14:23:17.609Z,94737.03
2019-06-10T14:25:47.430Z,94590.63
2019-06-10T14:28:35.799Z,94733.32
2019-06-10T14:30:50.278Z,94737.20
2019-06-10T14:33:23.189Z,94749.13
2019-06-10T14:35:53.519Z,94758.88
2019-06-10T14:38:23.944Z,94757.30
2019-06-10T14:40:54.308Z,94755.00
2019-06-10T14:43:24.851Z,94760.98
2019-06-10T14:45:55.219Z,94769.31
2019-06-10T14:48:25.549Z,94761.05
2019-06-10T14:50:55.989Z,94756.62
2019-06-10T14:53:26.767Z,94750.64
2019-06-10T14:55:57.406Z,94752.42
2019-06-10T14:58:27.677Z,94749.75
2019-06-10T15:00:58.263Z,94742.03
2019-06-10T15:03:28.982Z,94741.12
2019-06-10T15:05:59.303Z,94744.61
2019-06-10T15:08:32.128Z,94743.26
2019-06-10T15:11:01.805Z,94736.44
2019-06-10T15:13:32.723Z,94727.78
2019-06-10T15:16:04.300Z,94727.48
2019-06-10T15:18:35.386Z,94720.59
2019-06-10T15:21:06.950Z,94719.57
2019-06-10T15:23:37.482Z,94712.91
2019-06-10T15:26:08.007Z,94702.47
2019-06-10T15:28:39.432Z,94702.47
2019-06-10T15:31:12.967Z,94702.34
2019-06-10T15:36:13.238Z,94676.76
2019-06-10T15:38:44.106Z,94670.46
2019-06-10T15:41:17.862Z,94657.00
2019-06-10T15:43:46.616Z,94649.66
2019-06-10T15:46:17.979Z,94648.43
2019-06-10T15:48:49.894Z,94640.27
2019-06-10T15:51:25.071Z,94639.72
2019-06-10T15:53:52.456Z,94637.70
2019-06-10T15:56:36.482Z,94644.03
2019-06-10T15:58:54.869Z,94643.09
2019-06-10T16:01:27.399Z,94640.29
2019-06-10T16:03:57.570Z,94645.81
2019-06-10T16:06:27.971Z,94650.00
2019-06-10T16:08:58.354Z,94653.11
2019-06-10T16:11:28.693Z,94655.22
2019-06-10T16:13:59.224Z,94657.57
2019-06-10T16:16:32.351Z,94649.00
2019-06-10T16:19:02.242Z,94644.88
2019-06-10T16:21:34.113Z,94652.20
2019-06-10T16:24:05.113Z,94645.13
2019-06-10T16:26:35.616Z,94640.09
2019-06-10T16:29:06.275Z,94643.22
2019-06-10T16:31:36.661Z,94639.31
2019-06-10T16:34:07.242Z,94635.31
2019-06-10T16:36:37.621Z,94630.64
2019-06-10T16:39:08.287Z,94649.56
2019-06-10T16:41:39.833Z,94652.02
2019-06-10T16:44:10.606Z,94663.14
2019-06-10T16:46:43.082Z,94674.09
2019-06-10T16:49:13.042Z,94675.62
2019-06-10T16:51:43.502Z,94675.23
2019-06-10T16:54:14.088Z,94679.39
2019-06-10T16:56:45.624Z,94679.61
2019-06-10T16:59:16.355Z,94689.58
2019-06-10T17:01:46.689Z,94688.48
2019-06-10T17:04:17.534Z,94687.80
2019-06-10T17:06:47.810Z,94698.95
2019-06-10T17:09:18.571Z,94700.84
2019-06-10T17:11:49.256Z,94703.35
2019-06-10T17:14:20.063Z,94700.05
2019-06-10T17:16:52.741Z,94703.87
2019-06-10T17:19:26.836Z,94703.34
2019-06-10T17:21:56.294Z,94707.27
2019-06-10T17:24:27.683Z,94712.17
2019-06-10T17:26:59.035Z,94713.63
2019-06-10T17:29:30.597Z,94711.87
2019-06-10T17:32:02.758Z,94707.70
2019-06-10T17:34:33.904Z,94710.70
2019-06-10T17:37:04.489Z,94715.86
2019-06-10T17:39:35.232Z,94714.33
2019-06-10T17:42:05.807Z,94691.08
2019-06-10T17:44:36.145Z,94694.19
2019-06-10T17:47:06.983Z,94692.08
2019-06-10T17:49:37.728Z,94692.25
2019-06-10T17:52:08.051Z,94688.98
2019-06-10T17:54:38.655Z,94687.91
2019-06-10T17:57:09.393Z,94687.21
2019-06-10T17:59:39.889Z,94684.24
2019-06-10T18:02:12.378Z,94679.01
2019-06-10T18:04:42.319Z,94677.74
2019-06-10T18:07:13.132Z,94674.92
2019-06-10T18:09:43.439Z,94685.31
2019-06-10T18:12:14.058Z,94680.48
2019-06-10T18:14:44.744Z,94678.66
2019-06-10T18:17:15.046Z,94681.34
2019-06-10T18:19:45.992Z,94678.97
2019-06-10T18:22:16.661Z,94677.94
2019-06-10T18:24:46.997Z,94679.58
2019-06-10T18:27:17.766Z,94682.08
2019-06-10T18:29:48.479Z,94698.11
2019-06-10T18:32:18.771Z,94699.19
2019-06-10T18:34:49.153Z,94703.87
2019-06-10T18:37:22.752Z,94699.56
2019-06-10T18:39:52.756Z,94695.68
2019-06-10T18:42:23.664Z,94701.77
2019-06-10T18:44:54.170Z,94716.88
2019-06-10T18:47:24.684Z,94708.11
2019-06-10T18:49:55.399Z,94711.10
2019-06-10T18:52:26.704Z,94716.33
2019-06-10T18:54:57.137Z,94722.64
2019-06-10T18:57:28.799Z,94726.56
2019-06-10T19:00:00.055Z,94730.67
2019-06-10T19:02:30.420Z,94729.08
2019-06-10T19:05:02.822Z,94741.54
2019-06-10T19:07:33.865Z,94727.37
2019-06-10T19:10:05.536Z,94722.59
2019-06-10T19:12:37.028Z,94729.20
2019-06-10T19:15:11.920Z,94734.37
2019-06-10T19:17:44.343Z,94737.92
2019-06-10T19:20:16.098Z,94741.05
2019-06-10T19:22:46.503Z,94731.42
2019-06-10T19:25:17.224Z,94734.19
2019-06-10T19:27:47.580Z,94726.48
2019-06-10T19:30:18.642Z,94727.13
2019-06-10T19:32:49.061Z,94726.34
2019-06-10T19:35:19.414Z,94734.53
2019-06-10T19:37:49.749Z,94741.30
2019-06-10T19:40:22.649Z,94746.61
2019-06-10T19:42:52.871Z,94743.22
2019-06-10T19:45:23.745Z,94742.22
2019-06-10T19:47:56.695Z,94744.00
2019-06-10T19:50:26.029Z,94761.45
2019-06-10T19:52:56.627Z,94770.14
2019-06-10T19:55:27.218Z,94769.84
2019-06-10T19:57:57.641Z,94788.13
2019-06-10T20:00:28.580Z,94776.88
2019-06-10T20:02:58.934Z,94784.88
2019-06-10T20:05:29.268Z,94792.98
2019-06-10T20:07:59.961Z,94788.59
2019-06-10T20:10:32.371Z,94791.98
2019-06-10T20:13:03.043Z,94793.47
2019-06-10T20:15:33.410Z,94798.62
2019-06-10T20:18:03.678Z,94798.73
2019-06-10T20:20:34.411Z,94794.64
2019-06-10T20:23:08.504Z,94798.90
2019-06-10T20:25:38.335Z,94804.09
2019-06-10T20:28:09.300Z,94799.85
2019-06-10T20:30:41.512Z,94802.36
2019-06-10T20:33:13.737Z,94802.12
2019-06-10T20:35:45.724Z,94798.75
2019-06-10T20:38:17.543Z,94799.34
2019-06-10T20:40:48.759Z,94782.77
2019-06-10T20:43:19.280Z,94776.37
2019-06-10T20:45:50.035Z,94773.98
2019-06-10T20:48:24.293Z,94764.22
2019-06-10T20:50:54.186Z,94756.20
2019-06-10T20:53:24.523Z,94751.64
2019-06-10T20:55:57.761Z,94748.13
2019-06-10T20:58:27.373Z,94740.83
2019-06-10T21:00:58.612Z,94742.16
2019-06-10T21:03:29.100Z,94745.19
2019-06-10T21:06:03.130Z,94735.02
2019-06-10T21:08:34.356Z,94738.97
2019-06-10T21:11:04.714Z,94728.78
2019-06-10T21:13:35.247Z,94728.29
2019-06-10T21:16:05.762Z,94734.37
2019-06-10T21:18:36.516Z,94729.91
2019-06-10T21:21:06.925Z,94727.88
2019-06-10T21:23:37.207Z,94732.64
2019-06-10T21:26:07.879Z,94733.73
2019-06-10T21:28:38.169Z,94728.09
2019-06-10T21:31:08.504Z,94731.41
2019-06-10T21:33:38.883Z,94723.30
2019-06-10T21:36:09.350Z,94724.54
2019-06-10T21:38:39.723Z,94733.05
2019-06-10T21:41:12.317Z,94736.25
2019-06-10T21:43:49.375Z,94733.33
2019-06-10T21:46:15.942Z,94730.31
2019-06-10T21:48:47.756Z,94726.70
2019-06-10T21:51:18.531Z,94725.48
2019-06-10T21:53:49.201Z,94725.41
2019-06-10T21:56:22.308Z,94728.03
2019-06-10T21:58:53.795Z,94726.58
2019-06-10T22:01:23.628Z,94718.13
2019-06-10T22:04:00.534Z,94707.92
2019-06-10T22:06:26.464Z,94704.88
2019-06-10T22:08:57.119Z,94711.27
2019-06-10T22:11:28.766Z,94712.58
2019-06-10T22:13:59.040Z,94703.48
2019-06-10T22:16:29.524Z,94703.29
2019-06-10T22:19:03.097Z,94703.37
2019-06-10T22:21:32.657Z,94699.66
2019-06-10T22:24:03.166Z,94695.33
2019-06-10T22:26:33.947Z,94701.04
2019-06-10T22:29:04.507Z,94707.20
2019-06-10T22:31:34.811Z,94699.71
2019-06-10T22:34:05.460Z,94689.30
2019-06-10T22:36:35.985Z,94685.36
2019-06-10T22:39:07.083Z,94682.91
2019-06-10T22:41:39.302Z,94698.34
2019-06-10T22:44:12.510Z,94700.59
2019-06-10T22:46:42.539Z,94699.42
2019-06-10T22:49:13.613Z,94690.94
2019-06-10T22:51:44.457Z,94683.28
2019-06-10T22:54:14.780Z,94674.91
2019-06-10T22:56:45.328Z,94651.70
2019-06-10T22:59:15.587Z,94654.28
2019-06-10T23:01:46.399Z,94654.28
2019-06-10T23:04:16.990Z,94651.06
2019-06-10T23:06:48.197Z,94642.73
2019-06-10T23:09:18.979Z,94653.75
2019-06-10T23:11:51.141Z,94642.91
2019-06-10T23:14:22.761Z,94648.87
2019-06-10T23:16:55.272Z,94649.69
2019-06-10T23:19:27.285Z,94645.80
2019-06-10T23:21:58.427Z,94636.64
2019-06-10T23:24:32.240Z,94642.89
2019-06-10T23:27:03.102Z,94643.81
2019-06-10T23:29:33.873Z,94643.81
2019-06-10T23:32:07.164Z,94640.70
2019-06-10T23:34:36.369Z,94631.88
2019-06-10T23:37:06.885Z,94628.64
2019-06-10T23:39:37.510Z,94627.49
2019-06-10T23:42:07.794Z,94624.32
2019-06-10T23:44:38.114Z,94618.00
2019-06-10T23:47:08.656Z,94618.00
2019-06-10T23:49:38.979Z,94622.48
2019-06-10T23:52:09.512Z,94617.47
2019-06-10T23:54:40.212Z,94605.90
2019-06-10T23:57:12.896Z,94605.18
2019-06-10T23:59:43.108Z,94607.61
